Portada
METAR-TAF:

METAR-TAF

Aeroports :

Shearwater, Nova Escòcia, Canadà

latitud: 44-38N, longitud: 063-30W, altitud: 51 m

Observació

L'informe es va fer fa 8 hores i 24 minuts, a les 20:00 UTC
Vent 4 kt del Sud/Sud-Oest
Temperatura 15°C
Humitat 82%
Pressió 1012 hPa
Visibilitat: 19.3 km
Escasses núvols a una alçada de 600 ft
Cel ennuvolat a una alçada de 4100 ft
Cel ennuvolat a una alçada de 12000 ft

METAR: CYAW 052000Z 20004KT 12SM FEW006 BKN041 BKN120 15/12 A2989 RMK SF1SC5AC2 DA420FT LAST OBS/NXT 081600 UTC SLP123

Hora: 01:24 (04:24 UTC)


TAF: manca

Observacions i pronòstics meteorològics de més de 4000 aeroports (METAR i TAF).

Les estacions disponibles són els punts grocs i vermells al mapa.

Posi el ratolí al punt desitjat per veure el nom de l'estació.

Feu clic per veure les observacions i els pronòstics meteorològics.

Per canviar el mapa: feu clic els botons verds amb una creu de color negre per apropar; al botó verd amb un guió per allunyar la imatge; o en les fletxes verdes per a mapes adjacents.


METAR-TAF: